createdAt,value
2018-06-14T00:02:22.972Z,69.60
2018-06-14T00:07:19.363Z,69.70
2018-06-14T00:09:47.692Z,69.70
2018-06-14T00:12:15.951Z,69.70
2018-06-14T00:14:44.264Z,69.70
2018-06-14T00:17:12.612Z,69.70
2018-06-14T00:19:40.903Z,69.80
2018-06-14T00:22:09.240Z,69.80
2018-06-14T00:24:37.572Z,69.90
2018-06-14T00:27:05.876Z,70.00
2018-06-14T00:29:34.195Z,70.10
2018-06-14T00:32:02.656Z,70.10
2018-06-14T00:34:30.962Z,70.10
2018-06-14T00:36:59.285Z,70.20
2018-06-14T00:39:27.631Z,70.30
2018-06-14T00:41:55.947Z,70.30
2018-06-14T00:44:24.263Z,70.40
2018-06-14T00:46:52.560Z,70.50
2018-06-14T00:49:20.821Z,70.60
2018-06-14T00:51:49.236Z,70.60
2018-06-14T00:54:17.780Z,70.60
2018-06-14T00:56:57.249Z,70.60
2018-06-14T00:59:25.600Z,70.60
2018-06-14T01:01:53.904Z,70.60
2018-06-14T01:04:22.243Z,70.70
2018-06-14T01:06:50.576Z,70.80
2018-06-14T01:09:18.906Z,70.90
2018-06-14T01:11:47.307Z,70.90
2018-06-14T01:14:15.671Z,70.90
2018-06-14T01:16:43.975Z,71.00
2018-06-14T01:19:12.276Z,71.10
2018-06-14T01:21:40.601Z,71.20
2018-06-14T01:24:09.130Z,71.30
2018-06-14T01:26:37.476Z,71.30
2018-06-14T01:31:33.891Z,71.30
2018-06-14T01:34:02.176Z,71.40
2018-06-14T01:36:30.540Z,71.50
2018-06-14T01:38:58.845Z,71.40
2018-06-14T01:43:55.236Z,71.40
2018-06-14T01:46:23.631Z,71.40
2018-06-14T01:48:51.927Z,71.40
2018-06-14T01:51:20.270Z,71.50
2018-06-14T01:53:48.586Z,71.50
2018-06-14T01:56:17.680Z,71.40
2018-06-14T01:58:46.059Z,71.40
2018-06-14T02:01:14.372Z,71.50
2018-06-14T02:03:42.651Z,71.40
2018-06-14T02:06:10.996Z,71.50
2018-06-14T02:08:39.279Z,71.60
2018-06-14T02:11:07.699Z,71.70
2018-06-14T02:13:36.075Z,71.60
2018-06-14T02:16:06.977Z,71.60
2018-06-14T02:18:35.709Z,71.60
2018-06-14T02:21:04.054Z,71.60
2018-06-14T02:23:32.461Z,71.60
2018-06-14T02:26:00.904Z,71.60
2018-06-14T02:28:29.375Z,71.70
2018-06-14T02:30:57.805Z,71.80
2018-06-14T02:33:26.162Z,71.80
2018-06-14T02:35:54.562Z,71.90
2018-06-14T02:38:24.128Z,72.10
2018-06-14T02:40:53.230Z,72.30
2018-06-14T02:43:21.659Z,72.50
2018-06-14T02:45:50.123Z,72.60
2018-06-14T02:48:18.484Z,72.80
2018-06-14T02:50:46.783Z,73.00
2018-06-14T02:53:17.884Z,73.30
2018-06-14T02:55:46.809Z,73.30
2018-06-14T02:58:15.173Z,73.50
2018-06-14T03:00:43.532Z,73.60
2018-06-14T03:03:12.071Z,73.60
2018-06-14T03:05:40.457Z,73.80
2018-06-14T03:08:08.828Z,73.80
2018-06-14T03:10:37.216Z,73.90
2018-06-14T03:13:05.592Z,74.00
2018-06-14T03:15:33.925Z,74.10
2018-06-14T03:18:02.236Z,74.10
2018-06-14T03:20:30.766Z,74.20
2018-06-14T03:22:59.128Z,74.30
2018-06-14T03:25:27.440Z,74.40
2018-06-14T03:27:55.822Z,74.40
2018-06-14T03:30:24.136Z,74.40
2018-06-14T03:32:54.299Z,74.40
2018-06-14T03:35:22.613Z,75.00
2018-06-14T03:37:51.003Z,74.30
2018-06-14T03:40:19.299Z,74.30
2018-06-14T03:42:47.652Z,74.40
2018-06-14T03:45:20.132Z,74.30
2018-06-14T03:47:49.969Z,74.40
2018-06-14T03:50:18.316Z,74.30
2018-06-14T03:52:46.604Z,74.40
2018-06-14T03:55:14.975Z,74.50
2018-06-14T03:57:43.371Z,74.60
2018-06-14T04:00:12.506Z,74.60
2018-06-14T04:02:40.827Z,74.60
2018-06-14T04:05:09.208Z,74.60
2018-06-14T04:07:37.545Z,74.60
2018-06-14T04:10:05.972Z,74.60
2018-06-14T04:12:34.301Z,74.70
2018-06-14T04:15:02.718Z,74.70
2018-06-14T04:17:31.051Z,75.10
2018-06-14T04:19:59.380Z,74.80
2018-06-14T04:22:27.717Z,74.80
2018-06-14T04:24:56.097Z,75.00
2018-06-14T04:27:25.304Z,75.10
2018-06-14T04:29:53.779Z,75.20
2018-06-14T04:32:22.088Z,75.20
2018-06-14T04:34:50.384Z,75.30
2018-06-14T04:37:18.725Z,75.40
2018-06-14T04:39:47.044Z,75.50
2018-06-14T04:42:15.368Z,75.50
2018-06-14T04:44:43.651Z,75.40
2018-06-14T04:47:11.964Z,75.40
2018-06-14T04:49:40.282Z,75.30
2018-06-14T04:52:08.609Z,75.20
2018-06-14T04:54:37.052Z,75.00
2018-06-14T04:59:33.568Z,74.60
2018-06-14T05:02:01.944Z,74.30
2018-06-14T05:04:30.304Z,74.30
2018-06-14T05:06:58.680Z,74.10
2018-06-14T05:09:27.059Z,74.60
2018-06-14T05:11:55.445Z,74.00
2018-06-14T05:14:23.776Z,73.80
2018-06-14T05:16:52.143Z,73.60
2018-06-14T05:19:20.468Z,73.40
2018-06-14T05:21:48.806Z,73.00
2018-06-14T05:26:45.192Z,72.70
2018-06-14T05:29:13.564Z,72.50
2018-06-14T05:31:41.984Z,72.00
2018-06-14T05:34:10.342Z,71.40
2018-06-14T05:36:39.618Z,71.10
2018-06-14T05:39:09.972Z,71.10
2018-06-14T05:41:38.829Z,70.80
2018-06-14T05:44:07.280Z,70.30
2018-06-14T05:46:35.698Z,70.30
2018-06-14T05:49:04.547Z,70.20
2018-06-14T05:51:32.883Z,70.10
2018-06-14T05:54:01.461Z,70.20
2018-06-14T05:56:29.816Z,70.20
2018-06-14T05:58:58.148Z,70.00
2018-06-14T06:01:26.580Z,69.30
2018-06-14T06:03:54.925Z,70.00
2018-06-14T06:06:23.261Z,70.00
2018-06-14T06:08:51.583Z,68.90
2018-06-14T06:11:19.983Z,68.40
2018-06-14T06:16:16.380Z,68.10
2018-06-14T06:18:44.732Z,67.20
2018-06-14T06:21:13.093Z,67.00
2018-06-14T06:23:41.495Z,66.60
2018-06-14T06:26:09.979Z,66.10
2018-06-14T06:28:39.164Z,65.90
2018-06-14T06:31:07.797Z,65.70
2018-06-14T06:33:36.128Z,65.80
2018-06-14T06:36:04.470Z,66.10
2018-06-14T06:38:33.093Z,66.10
2018-06-14T06:41:01.424Z,65.50
2018-06-14T06:43:29.748Z,65.30
2018-06-14T06:45:58.089Z,65.10
2018-06-14T06:48:26.413Z,65.20
2018-06-14T06:50:54.718Z,64.80
2018-06-14T06:53:23.095Z,64.20
2018-06-14T06:58:19.420Z,63.50
2018-06-14T07:03:16.369Z,63.00
2018-06-14T07:05:44.847Z,62.90
2018-06-14T07:08:13.266Z,62.40
2018-06-14T07:10:41.611Z,62.40
2018-06-14T07:13:09.912Z,62.10
2018-06-14T07:15:38.248Z,61.90
2018-06-14T07:18:06.684Z,61.90
2018-06-14T07:20:35.454Z,61.90
2018-06-14T07:23:03.828Z,61.80
2018-06-14T07:25:32.420Z,61.50
2018-06-14T07:28:00.731Z,61.10
2018-06-14T07:30:29.804Z,61.00
2018-06-14T07:32:58.276Z,61.10
2018-06-14T07:35:26.612Z,60.80
2018-06-14T07:37:54.971Z,60.10
2018-06-14T07:40:23.283Z,60.10
2018-06-14T07:42:51.603Z,60.00
2018-06-14T07:45:20.128Z,59.80
2018-06-14T07:47:49.455Z,60.00
2018-06-14T07:50:17.761Z,60.00
2018-06-14T07:52:46.127Z,59.80
2018-06-14T07:55:14.491Z,59.50
2018-06-14T07:57:42.823Z,59.30
2018-06-14T08:00:11.157Z,59.00
2018-06-14T08:02:39.535Z,59.10
2018-06-14T08:05:08.030Z,59.20
2018-06-14T08:07:36.401Z,58.90
2018-06-14T08:10:04.752Z,58.30
2018-06-14T08:12:33.105Z,57.70
2018-06-14T08:15:01.421Z,57.40
2018-06-14T08:17:29.768Z,56.90
2018-06-14T08:19:58.071Z,56.60
2018-06-14T08:22:26.428Z,56.20
2018-06-14T08:24:54.708Z,56.40
2018-06-14T08:27:23.032Z,55.90
2018-06-14T08:29:51.433Z,56.00
2018-06-14T08:32:19.817Z,56.30
2018-06-14T08:34:48.147Z,56.70
2018-06-14T08:37:16.574Z,56.20
2018-06-14T08:39:45.104Z,55.40
2018-06-14T08:42:13.551Z,54.70
2018-06-14T08:44:41.950Z,54.70
2018-06-14T08:47:11.015Z,54.80
2018-06-14T08:49:42.356Z,54.70
2018-06-14T08:52:11.025Z,54.90
2018-06-14T08:54:39.360Z,54.40
2018-06-14T08:57:07.875Z,53.80
2018-06-14T08:59:36.208Z,53.00
2018-06-14T09:02:04.613Z,52.10
2018-06-14T09:04:32.964Z,51.40
2018-06-14T09:07:01.292Z,50.90
2018-06-14T09:09:29.941Z,49.80
2018-06-14T09:11:58.536Z,49.30
2018-06-14T09:14:26.858Z,49.70
2018-06-14T09:16:55.275Z,49.70
2018-06-14T09:19:23.582Z,50.50
2018-06-14T09:21:51.904Z,50.10
2018-06-14T09:24:20.236Z,49.40
2018-06-14T09:26:48.657Z,48.60
2018-06-14T09:29:17.005Z,47.50
2018-06-14T09:31:45.343Z,46.90
2018-06-14T09:34:13.792Z,46.50
2018-06-14T09:36:42.096Z,46.80
2018-06-14T09:39:10.888Z,46.20
2018-06-14T09:41:39.747Z,46.30
2018-06-14T09:44:08.137Z,45.50
2018-06-14T09:46:36.532Z,45.00
2018-06-14T09:49:09.287Z,44.30
2018-06-14T09:51:38.245Z,44.60
2018-06-14T09:54:07.017Z,44.10
2018-06-14T09:59:03.426Z,44.10
2018-06-14T10:01:31.776Z,43.30
2018-06-14T10:04:00.140Z,43.30
2018-06-14T10:06:28.599Z,44.00
2018-06-14T10:08:58.472Z,44.00
2018-06-14T10:11:26.836Z,44.40
2018-06-14T10:13:55.180Z,44.60
2018-06-14T10:18:52.464Z,44.70
2018-06-14T10:21:20.945Z,44.10
2018-06-14T10:23:49.257Z,43.70
2018-06-14T10:26:18.424Z,43.50
2018-06-14T10:28:48.372Z,43.40
2018-06-14T10:31:16.685Z,43.10
2018-06-14T10:33:45.041Z,42.90
2018-06-14T10:36:13.518Z,43.10
2018-06-14T10:38:42.131Z,43.10
2018-06-14T10:41:10.491Z,42.80
2018-06-14T10:43:38.910Z,43.60
2018-06-14T10:46:08.213Z,42.90
2018-06-14T10:48:36.632Z,42.70
2018-06-14T10:51:04.980Z,42.70
2018-06-14T10:53:33.390Z,42.60
2018-06-14T10:56:01.736Z,41.90
2018-06-14T10:58:30.870Z,40.90
2018-06-14T11:01:00.785Z,40.40
2018-06-14T11:03:29.971Z,40.50
2018-06-14T11:05:59.055Z,40.50
2018-06-14T11:08:27.424Z,40.70
2018-06-14T11:10:55.832Z,41.00
2018-06-14T11:13:24.217Z,41.10
2018-06-14T11:15:52.693Z,40.70
2018-06-14T11:18:21.100Z,40.40
2018-06-14T11:20:49.470Z,39.90
2018-06-14T11:23:17.895Z,39.30
2018-06-14T11:25:46.379Z,39.70
2018-06-14T11:28:15.123Z,40.00
2018-06-14T11:30:43.475Z,40.10
2018-06-14T11:33:11.829Z,40.30
2018-06-14T11:35:40.176Z,39.90
2018-06-14T11:38:08.710Z,39.20
2018-06-14T11:40:37.193Z,38.10
2018-06-14T11:43:05.524Z,37.70
2018-06-14T11:45:34.248Z,38.20
2018-06-14T11:48:02.564Z,38.00
2018-06-14T11:50:30.903Z,38.30
2018-06-14T11:52:59.220Z,38.50
2018-06-14T11:55:27.894Z,38.60
2018-06-14T11:57:56.229Z,38.50
2018-06-14T12:00:24.561Z,38.60
2018-06-14T12:02:53.124Z,38.30
2018-06-14T12:05:21.485Z,37.90
2018-06-14T12:07:49.837Z,37.20
2018-06-14T12:10:18.162Z,37.90
2018-06-14T12:12:46.473Z,37.20
2018-06-14T12:15:15.031Z,36.50
2018-06-14T12:17:43.948Z,36.00
2018-06-14T12:20:12.296Z,35.60
2018-06-14T12:25:08.678Z,33.30
2018-06-14T12:27:36.986Z,32.70
2018-06-14T12:30:05.316Z,32.10
2018-06-14T12:32:33.668Z,32.00
2018-06-14T12:37:30.056Z,32.90
2018-06-14T12:39:58.364Z,32.10
2018-06-14T12:42:26.666Z,31.90
2018-06-14T12:47:23.079Z,31.40
2018-06-14T12:49:51.508Z,31.30
2018-06-14T12:52:19.946Z,31.70
2018-06-14T12:54:48.260Z,31.90
2018-06-14T12:57:16.561Z,32.10
2018-06-14T12:59:44.883Z,32.20
2018-06-14T13:02:13.434Z,31.90
2018-06-14T13:04:42.085Z,31.10
2018-06-14T13:07:11.835Z,30.40
2018-06-14T13:09:40.449Z,30.00
2018-06-14T13:14:36.867Z,30.00
2018-06-14T13:17:05.165Z,30.90
2018-06-14T13:19:33.449Z,31.70
2018-06-14T13:22:01.848Z,32.10
2018-06-14T13:24:36.647Z,32.40
2018-06-14T13:27:05.005Z,32.00
2018-06-14T13:29:33.328Z,32.30
2018-06-14T13:32:01.689Z,32.60
2018-06-14T13:34:30.030Z,32.30
2018-06-14T13:36:58.361Z,31.70
2018-06-14T13:39:26.783Z,31.40
2018-06-14T13:41:57.355Z,31.20
2018-06-14T13:44:25.726Z,31.30
2018-06-14T13:46:54.048Z,31.90
2018-06-14T13:49:22.415Z,31.10
2018-06-14T13:51:50.950Z,31.20
2018-06-14T13:54:20.167Z,31.10
2018-06-14T13:56:48.653Z,30.40
2018-06-14T13:59:16.968Z,30.10
2018-06-14T14:01:45.349Z,30.30
2018-06-14T14:04:13.664Z,30.70
2018-06-14T14:06:42.000Z,31.20
2018-06-14T14:09:11.669Z,32.20
2018-06-14T14:11:40.147Z,32.60
2018-06-14T14:14:08.472Z,32.60
2018-06-14T14:16:36.952Z,33.20
2018-06-14T14:19:05.308Z,33.50
2018-06-14T14:21:33.651Z,33.60
2018-06-14T14:24:01.969Z,34.00
2018-06-14T14:26:30.292Z,34.60
2018-06-14T14:28:58.608Z,34.70
2018-06-14T14:31:26.961Z,34.80
2018-06-14T14:33:55.406Z,34.70
2018-06-14T14:36:23.681Z,34.80
2018-06-14T14:41:20.076Z,35.20
2018-06-14T14:43:48.424Z,35.30
2018-06-14T14:46:16.788Z,34.90
2018-06-14T14:51:13.132Z,34.20
2018-06-14T14:53:41.464Z,33.90
2018-06-14T14:56:09.849Z,33.50
2018-06-14T14:58:38.244Z,34.10
2018-06-14T15:01:06.548Z,33.90
2018-06-14T15:03:34.856Z,33.90
2018-06-14T15:06:03.200Z,33.90
2018-06-14T15:08:31.516Z,34.00
2018-06-14T15:10:59.828Z,33.40
2018-06-14T15:13:28.131Z,33.60
2018-06-14T15:15:56.820Z,34.10
2018-06-14T15:18:25.257Z,34.50
2018-06-14T15:20:53.694Z,34.90
2018-06-14T15:23:22.017Z,34.90
2018-06-14T15:25:50.332Z,34.90
2018-06-14T15:28:18.816Z,35.40
2018-06-14T15:30:47.095Z,35.30
2018-06-14T15:33:15.416Z,35.50
2018-06-14T15:35:43.708Z,36.00
2018-06-14T15:38:12.063Z,36.10
2018-06-14T15:40:40.464Z,35.70
2018-06-14T15:43:08.812Z,35.70
2018-06-14T15:45:37.140Z,36.10
2018-06-14T15:48:05.512Z,36.10
2018-06-14T15:50:33.880Z,36.30
2018-06-14T15:53:02.425Z,36.30
2018-06-14T15:56:12.790Z,36.60
2018-06-14T15:58:41.150Z,36.90
2018-06-14T16:01:09.444Z,37.10
2018-06-14T16:03:37.781Z,37.20
2018-06-14T16:06:06.100Z,36.90
2018-06-14T16:08:34.404Z,37.20
2018-06-14T16:11:02.812Z,37.20
2018-06-14T16:13:31.136Z,37.40
2018-06-14T16:15:59.515Z,37.80
2018-06-14T16:18:27.848Z,38.00
2018-06-14T16:20:56.204Z,38.20
2018-06-14T16:23:24.550Z,37.90
2018-06-14T16:25:52.835Z,37.90
2018-06-14T16:28:21.161Z,38.20
2018-06-14T16:30:49.516Z,38.20
2018-06-14T16:33:17.843Z,38.30
2018-06-14T16:35:46.228Z,38.40
2018-06-14T16:38:14.577Z,38.50
2018-06-14T16:43:11.201Z,38.80
2018-06-14T16:45:39.639Z,39.00
2018-06-14T16:48:07.956Z,39.20
2018-06-14T16:50:36.236Z,39.50
2018-06-14T16:53:04.807Z,40.40
2018-06-14T16:55:33.152Z,41.20
2018-06-14T16:58:01.585Z,41.40
2018-06-14T17:00:30.134Z,42.10
2018-06-14T17:02:58.471Z,43.90
2018-06-14T17:05:26.804Z,46.50
2018-06-14T17:07:55.104Z,49.50
2018-06-14T17:10:23.417Z,52.10
2018-06-14T17:12:52.007Z,54.90
2018-06-14T17:15:20.576Z,57.20
2018-06-14T17:20:17.040Z,62.30
2018-06-14T17:22:45.364Z,64.30
2018-06-14T17:25:13.772Z,65.80
2018-06-14T17:27:42.131Z,67.60
2018-06-14T17:30:10.540Z,69.20
2018-06-14T17:32:38.788Z,70.50
2018-06-14T17:35:07.311Z,71.60
2018-06-14T17:37:35.680Z,72.20
2018-06-14T17:40:04.112Z,72.80
2018-06-14T17:42:32.411Z,73.70
2018-06-14T17:45:00.784Z,74.50
2018-06-14T17:47:29.104Z,74.90
2018-06-14T17:49:57.420Z,75.60
2018-06-14T17:52:25.760Z,76.20
2018-06-14T17:54:54.135Z,76.50
2018-06-14T17:57:22.470Z,77.10
2018-06-14T17:59:50.844Z,77.70
2018-06-14T18:02:19.257Z,78.20
2018-06-14T18:04:47.624Z,78.60
2018-06-14T18:07:15.980Z,78.90
2018-06-14T18:09:44.412Z,79.50
2018-06-14T18:12:12.819Z,79.70
2018-06-14T18:14:41.178Z,80.10
2018-06-14T18:17:09.579Z,80.50
2018-06-14T18:19:37.896Z,81.00
2018-06-14T18:22:06.180Z,81.20
2018-06-14T18:24:34.503Z,81.40
2018-06-14T18:27:02.928Z,81.80
2018-06-14T18:29:31.288Z,82.00
2018-06-14T18:34:27.705Z,82.10
2018-06-14T18:36:56.099Z,82.60
2018-06-14T18:39:24.459Z,83.00
2018-06-14T18:41:52.796Z,83.00
2018-06-14T18:44:21.152Z,83.00
2018-06-14T18:46:49.514Z,83.10
2018-06-14T18:49:24.259Z,83.20
2018-06-14T18:51:52.595Z,83.30
2018-06-14T18:54:20.992Z,83.40
2018-06-14T18:56:49.350Z,83.40
2018-06-14T18:59:17.692Z,83.70
2018-06-14T19:01:46.007Z,83.80
2018-06-14T19:04:14.275Z,84.10
2018-06-14T19:06:42.627Z,84.30
2018-06-14T19:09:11.451Z,84.50
2018-06-14T19:11:41.119Z,84.50
2018-06-14T19:14:09.856Z,84.50
2018-06-14T19:16:38.168Z,84.60
2018-06-14T19:19:06.496Z,84.50
2018-06-14T19:21:34.867Z,84.70
2018-06-14T19:24:03.225Z,84.60
2018-06-14T19:26:31.595Z,84.70
2018-06-14T19:28:59.906Z,84.80
2018-06-14T19:31:28.290Z,85.00
2018-06-14T19:33:56.631Z,84.90
2018-06-14T19:36:25.008Z,85.30
2018-06-14T19:38:53.330Z,85.40
2018-06-14T19:41:21.630Z,85.40
2018-06-14T19:43:50.157Z,85.80
2018-06-14T19:46:18.484Z,86.50
2018-06-14T19:48:46.849Z,85.80
2018-06-14T19:51:15.220Z,85.80
2018-06-14T19:53:43.511Z,85.70
2018-06-14T19:56:11.844Z,85.70
2018-06-14T19:58:40.127Z,85.70
2018-06-14T20:01:08.576Z,85.70
2018-06-14T20:03:36.856Z,85.70
2018-06-14T20:06:05.320Z,85.70
2018-06-14T20:08:33.664Z,85.70
2018-06-14T20:11:01.993Z,85.70
2018-06-14T20:13:30.357Z,85.60
2018-06-14T20:15:58.727Z,85.60
2018-06-14T20:18:27.042Z,85.60
2018-06-14T20:20:55.517Z,85.90
2018-06-14T20:23:23.806Z,86.10
2018-06-14T20:25:52.157Z,86.10
2018-06-14T20:30:48.673Z,86.00
2018-06-14T20:33:17.028Z,85.80
2018-06-14T20:35:45.456Z,86.10
2018-06-14T20:38:13.812Z,86.10
2018-06-14T20:40:42.152Z,86.00
2018-06-14T20:43:10.576Z,85.80
2018-06-14T20:45:38.965Z,86.20
2018-06-14T20:48:07.260Z,86.30
2018-06-14T20:53:03.684Z,86.00
2018-06-14T20:55:32.068Z,86.00
2018-06-14T20:58:00.397Z,86.20
2018-06-14T21:00:29.113Z,86.40
2018-06-14T21:02:57.404Z,86.10
2018-06-14T21:05:25.703Z,85.70
2018-06-14T21:07:54.011Z,85.70
2018-06-14T21:10:22.328Z,85.70
2018-06-14T21:12:50.635Z,85.70
2018-06-14T21:15:18.983Z,85.60
2018-06-14T21:17:47.361Z,85.40
2018-06-14T21:20:15.672Z,85.60
2018-06-14T21:22:43.981Z,85.60
2018-06-14T21:25:12.404Z,85.70
2018-06-14T21:27:40.753Z,85.70
2018-06-14T21:30:09.172Z,85.70
2018-06-14T21:32:37.508Z,85.80
2018-06-14T21:35:06.220Z,85.70
2018-06-14T21:37:34.573Z,85.90
2018-06-14T21:40:02.990Z,85.70
2018-06-14T21:42:31.348Z,85.70
2018-06-14T21:44:59.651Z,85.70
2018-06-14T21:47:27.985Z,85.70
2018-06-14T21:49:56.308Z,85.70
2018-06-14T21:52:24.661Z,85.70
2018-06-14T21:54:52.975Z,85.70
2018-06-14T21:57:21.336Z,85.70
2018-06-14T21:59:49.756Z,85.80
2018-06-14T22:02:18.052Z,86.10
2018-06-14T22:04:46.416Z,86.30
2018-06-14T22:07:15.091Z,86.30
2018-06-14T22:09:44.440Z,86.60
2018-06-14T22:12:13.201Z,86.60
2018-06-14T22:14:41.568Z,86.60
2018-06-14T22:17:10.599Z,86.60
2018-06-14T22:19:39.025Z,86.60
2018-06-14T22:22:07.482Z,86.60
2018-06-14T22:24:36.112Z,86.80
2018-06-14T22:27:04.699Z,86.90
2018-06-14T22:29:33.032Z,86.90
2018-06-14T22:32:01.378Z,87.00
2018-06-14T22:34:40.868Z,87.00
2018-06-14T22:37:09.220Z,87.20
2018-06-14T22:39:37.527Z,87.30
2018-06-14T22:42:05.890Z,87.40
2018-06-14T22:44:34.213Z,87.50
2018-06-14T22:47:02.573Z,87.60
2018-06-14T22:49:30.940Z,87.70
2018-06-14T22:53:09.240Z,87.10
2018-06-14T22:55:37.647Z,87.80
2018-06-14T22:58:05.967Z,87.60
2018-06-14T23:01:45.101Z,87.70
2018-06-14T23:04:23.912Z,87.70
2018-06-14T23:06:52.392Z,87.60
2018-06-14T23:10:32.559Z,87.80
2018-06-14T23:13:00.956Z,87.90
2018-06-14T23:15:29.316Z,87.90
2018-06-14T23:17:57.796Z,88.00
2018-06-14T23:20:27.156Z,88.20
2018-06-14T23:22:56.460Z,88.20
2018-06-14T23:25:25.585Z,88.10
2018-06-14T23:27:53.940Z,88.30
2018-06-14T23:30:22.236Z,88.30
2018-06-14T23:32:50.836Z,88.50
2018-06-14T23:35:19.406Z,88.50
2018-06-14T23:37:47.772Z,88.50
2018-06-14T23:40:16.143Z,88.50
2018-06-14T23:42:44.548Z,88.60
2018-06-14T23:45:12.820Z,88.60
2018-06-14T23:47:41.131Z,88.80
2018-06-14T23:50:09.546Z,88.70
2018-06-14T23:52:44.307Z,88.80
2018-06-14T23:55:12.619Z,88.80
2018-06-14T23:57:40.945Z,88.70
